Time;durP1;ratioP1;P1;durP2;ratioP2;P2;SDS_P1;SDS_P2;PMS_P1;PMS_P2;Temp;Humidity;BMP_temperature;BMP_pressure;BME280_temperature;BME280_humidity;BME280_pressure;Samples;Min_cycle;Max_cycle;Signal;HPM_P1;HPM_P2
2021/07/16 00:00:14;;;;;;;;;;;;;;;;;;5077634;28;19931;-64
2021/07/16 00:02:41;;;;;;;;;;;;;;;;;;5075474;28;19925;-63
2021/07/16 00:05:08;;;;;;;;;;;;;;;;;;5080637;28;19924;-63
2021/07/16 00:07:35;;;;;;;;;;;;;;;;;;5073429;28;20289;-65
2021/07/16 00:10:02;;;;;;;;;;;;;;;;;;5083454;28;19928;-64
2021/07/16 00:12:29;;;;;;;;;;;;;;;;;;5084496;28;19924;-64
2021/07/16 00:14:59;;;;;;;;;;;;;;;;;;5085244;28;19924;-64
2021/07/16 00:17:26;;;;;;;;;;;;;;;;;;5087456;28;19936;-64
2021/07/16 00:19:53;;;;;;;;;;;;;;;;;;5081625;28;19931;-64
2021/07/16 00:22:22;;;;;;;;;;;;;;;;;;5082585;28;19931;-64
2021/07/16 00:24:49;;;;;;;;;;;;;;;;;;5081534;28;19928;-64
2021/07/16 00:27:17;;;;;;;;;;;;;;;;;;5085213;28;19924;-64
2021/07/16 00:29:44;;;;;;;;;;;;;;;;;;5084970;28;20012;-64
2021/07/16 00:32:10;;;;;;;;;;;;;;;;;;5081132;28;19928;-64
2021/07/16 00:34:37;;;;;;;;;;;;;;;;;;5090597;28;20295;-64
2021/07/16 00:37:04;;;;;;;;;;;;;;;;;;5082663;28;19924;-64
2021/07/16 00:39:31;;;;;;;;;;;;;;;;;;5082618;28;19924;-64
2021/07/16 00:41:58;;;;;;;;;;;;;;;;;;5082631;28;19932;-64
2021/07/16 00:44:25;;;;;;;;;;;;;;;;;;5084178;28;19924;-64
2021/07/16 00:46:52;;;;;;;;;;;;;;;;;;5090774;28;20323;-64
2021/07/16 00:49:19;;;;;;;;;;;;;;;;;;5086334;28;19924;-64
2021/07/16 00:51:46;;;;;;;;;;;;;;;;;;5085199;28;20048;-64
2021/07/16 00:54:13;;;;;;;;;;;;;;;;;;5089256;28;19928;-64
2021/07/16 00:56:40;;;;;;;;;;;;;;;;;;5082055;28;20065;-64
2021/07/16 00:59:07;;;;;;;;;;;;;;;;;;5084530;28;20400;-64
2021/07/16 01:01:34;;;;;;;;;;;;;;;;;;5087456;28;19924;-64
2021/07/16 01:04:01;;;;;;;;;;;;;;;;;;5084557;28;19924;-64
2021/07/16 01:06:28;;;;;;;;;;;;;;;;;;5087744;28;19940;-64
2021/07/16 01:08:55;;;;;;;;;;;;;;;;;;5084890;28;19928;-64
2021/07/16 01:11:22;;;;;;;;;;;;;;;;;;5083038;28;19931;-64
2021/07/16 01:13:48;;;;;;;;;;;;;;;;;;5084756;28;19928;-64
2021/07/16 01:16:15;;;;;;;;;;;;;;;;;;5085664;28;19932;-64
2021/07/16 01:18:42;;;;;;;;;;;;;;;;;;5081676;28;19929;-64
2021/07/16 01:21:09;;;;;;;;;;;;;;;;;;5088880;28;20288;-63
2021/07/16 01:23:36;;;;;;;;;;;;;;;;;;5082529;28;20289;-64
2021/07/16 01:26:03;;;;;;;;;;;;;;;;;;5080225;28;19924;-64
2021/07/16 01:28:30;;;;;;;;;;;;;;;;;;5079632;28;19931;-63
2021/07/16 01:30:57;;;;;;;;;;;;;;;;;;5088275;28;19932;-63
2021/07/16 01:33:24;;;;;;;;;;;;;;;;;;5089633;28;19924;-62
2021/07/16 01:35:51;;;;;;;;;;;;;;;;;;5089335;28;19931;-64
2021/07/16 01:38:18;;;;;;;;;;;;;;;;;;5076660;28;19924;-63
2021/07/16 01:40:46;;;;;;;;;;;;;;;;;;5085456;28;19924;-64
2021/07/16 01:43:13;;;;;;;;;;;;;;;;;;5086854;28;19935;-64
2021/07/16 01:45:40;;;;;;;;;;;;;;;;;;5081283;28;19925;-63
2021/07/16 01:48:07;;;;;;;;;;;;;;;;;;5086396;28;20392;-63
2021/07/16 01:50:34;;;;;;;;;;;;;;;;;;5085459;28;19928;-63
2021/07/16 01:53:01;;;;;;;;;;;;;;;;;;5080706;28;19924;-63
2021/07/16 01:55:27;;;;;;;;;;;;;;;;;;5089984;28;19928;-63
2021/07/16 01:57:54;;;;;;;;;;;;;;;;;;5085609;28;19931;-64
2021/07/16 02:00:21;;;;;;;;;;;;;;;;;;5085477;28;19924;-64
2021/07/16 02:02:48;;;;;;;;;;;;;;;;;;5081428;28;19924;-63
2021/07/16 02:05:16;;;;;;;;;;;;;;;;;;5090916;28;19924;-64
2021/07/16 02:07:43;;;;;;;;;;;;;;;;;;5083368;28;20031;-63
2021/07/16 02:10:10;;;;;;;;;;;;;;;;;;5089101;28;19924;-63
2021/07/16 02:12:37;;;;;;;;;;;;;;;;;;5086252;28;20529;-63
2021/07/16 02:15:04;;;;;;;;;;;;;;;;;;5087836;28;19950;-63
2021/07/16 02:17:31;;;;;;;;;;;;;;;;;;5077414;28;20570;-63
2021/07/16 02:19:58;;;;;;;;;;;;;;;;;;5085070;28;19924;-64
2021/07/16 02:22:25;;;;;;;;;;;;;;;;;;5084972;28;20303;-64
2021/07/16 02:24:52;;;;;;;;;;;;;;;;;;5082726;28;20299;-64
2021/07/16 02:27:19;;;;;;;;;;;;;;;;;;5083861;28;19928;-63
2021/07/16 02:29:46;;;;;;;;;;;;;;;;;;5083747;28;19943;-63
2021/07/16 02:32:12;;;;;;;;;;;;;;;;;;5086696;28;19930;-63
2021/07/16 02:34:39;;;;;;;;;;;;;;;;;;5080743;28;19925;-63
2021/07/16 02:37:06;;;;;;;;;;;;;;;;;;5084487;28;19928;-64
2021/07/16 02:39:33;;;;;;;;;;;;;;;;;;5084975;28;19927;-64
2021/07/16 02:42:00;;;;;;;;;;;;;;;;;;5082128;28;19925;-63
2021/07/16 02:44:27;;;;;;;;;;;;;;;;;;5086730;28;19924;-64
2021/07/16 02:46:54;;;;;;;;;;;;;;;;;;5082836;28;19935;-64
2021/07/16 02:49:21;;;;;;;;;;;;;;;;;;5081216;28;19928;-64
2021/07/16 02:51:48;;;;;;;;;;;;;;;;;;5089101;28;20320;-64
2021/07/16 02:54:15;;;;;;;;;;;;;;;;;;5088498;28;19932;-64
2021/07/16 02:56:42;;;;;;;;;;;;;;;;;;5084510;28;19931;-63
2021/07/16 02:59:09;;;;;;;;;;;;;;;;;;5080901;28;19931;-64
2021/07/16 03:01:36;;;;;;;;;;;;;;;;;;5078343;28;19931;-64
2021/07/16 03:04:02;;;;;;;;;;;;;;;;;;5080266;28;20223;-64
2021/07/16 03:06:29;;;;;;;;;;;;;;;;;;5084344;28;19932;-64
2021/07/16 03:08:56;;;;;;;;;;;;;;;;;;5088361;28;19931;-64
2021/07/16 03:11:23;;;;;;;;;;;;;;;;;;5083560;28;19924;-64
2021/07/16 03:13:50;;;;;;;;;;;;;;;;;;5085533;28;19932;-64
2021/07/16 03:16:17;;;;;;;;;;;;;;;;;;5082886;28;19924;-63
2021/07/16 03:18:44;;;;;;;;;;;;;;;;;;5086836;28;20418;-64
2021/07/16 03:21:11;;;;;;;;;;;;;;;;;;5085263;28;19939;-63
2021/07/16 03:23:38;;;;;;;;;;;;;;;;;;5077287;28;19928;-64
2021/07/16 03:26:05;;;;;;;;;;;;;;;;;;5079890;28;19932;-63
2021/07/16 03:28:32;;;;;;;;;;;;;;;;;;5086301;28;19924;-64
2021/07/16 03:31:00;;;;;;;;;;;;;;;;;;5084426;28;19932;-63
2021/07/16 03:33:27;;;;;;;;;;;;;;;;;;5079158;28;19932;-63
2021/07/16 03:35:54;;;;;;;;;;;;;;;;;;5094824;22;19943;-70
2021/07/16 03:38:21;;;;;;;;;;;;;;;;;;5066465;28;19924;-70
2021/07/16 03:40:53;;;;;;;;;;;;;;;;;;5059381;28;20357;-70
2021/07/16 03:43:20;;;;;;;;;;;;;;;;;;5063109;28;20260;-70
2021/07/16 03:45:47;;;;;;;;;;;;;;;;;;5066370;28;21437;-70
2021/07/16 03:48:14;;;;;;;;;;;;;;;;;;5065183;28;19947;-71
2021/07/16 03:50:41;;;;;;;;;;;;;;;;;;5061845;28;19928;-71
2021/07/16 03:53:08;;;;;;;;;;;;;;;;;;5059235;28;20284;-70
2021/07/16 03:55:35;;;;;;;;;;;;;;;;;;5059480;28;20343;-71
2021/07/16 03:58:03;;;;;;;;;;;;;;;;;;5061564;28;20007;-70
2021/07/16 04:00:30;;;;;;;;;;;;;;;;;;5062249;28;19959;-70
2021/07/16 04:02:57;;;;;;;;;;;;;;;;;;5068338;28;20320;-69
2021/07/16 04:05:24;;;;;;;;;;;;;;;;;;5068101;28;20301;-71
2021/07/16 04:07:53;;;;;;;;;;;;;;;;;;5071725;28;20281;-71
2021/07/16 04:10:20;;;;;;;;;;;;;;;;;;5062361;28;20387;-70
2021/07/16 04:12:47;;;;;;;;;;;;;;;;;;5063437;28;20438;-70
2021/07/16 04:15:14;;;;;;;;;;;;;;;;;;5060332;28;20270;-70
2021/07/16 04:17:41;;;;;;;;;;;;;;;;;;5067753;28;19940;-70
2021/07/16 04:20:08;;;;;;;;;;;;;;;;;;5071158;28;19932;-70
2021/07/16 04:22:35;;;;;;;;;;;;;;;;;;5065438;28;19924;-70
2021/07/16 04:25:02;;;;;;;;;;;;;;;;;;5059684;28;19928;-70
2021/07/16 04:27:28;;;;;;;;;;;;;;;;;;5062298;28;20118;-70
2021/07/16 04:29:55;;;;;;;;;;;;;;;;;;5069294;28;19924;-71
2021/07/16 04:32:22;;;;;;;;;;;;;;;;;;5069515;28;19925;-70
2021/07/16 04:34:49;;;;;;;;;;;;;;;;;;5058006;28;19925;-70
2021/07/16 04:37:16;;;;;;;;;;;;;;;;;;5062871;28;19931;-70
2021/07/16 04:39:43;;;;;;;;;;;;;;;;;;5071743;28;19932;-70
2021/07/16 04:42:10;;;;;;;;;;;;;;;;;;5063667;28;19925;-71
2021/07/16 04:44:37;;;;;;;;;;;;;;;;;;5058194;28;19935;-72
2021/07/16 04:47:04;;;;;;;;;;;;;;;;;;5070222;28;19934;-71
2021/07/16 04:49:31;;;;;;;;;;;;;;;;;;5063369;28;20027;-70
2021/07/16 04:51:58;;;;;;;;;;;;;;;;;;5069477;28;19925;-70
2021/07/16 04:54:25;;;;;;;;;;;;;;;;;;5060914;28;19924;-72
2021/07/16 04:56:53;;;;;;;;;;;;;;;;;;5058104;28;20047;-70
2021/07/16 04:59:20;;;;;;;;;;;;;;;;;;5063573;28;20337;-70
2021/07/16 05:01:48;;;;;;;;;;;;;;;;;;5064116;28;20559;-70
2021/07/16 05:04:15;;;;;;;;;;;;;;;;;;5061889;28;20456;-72
2021/07/16 05:06:42;;;;;;;;;;;;;;;;;;5064119;28;20398;-71
2021/07/16 05:09:09;;;;;;;;;;;;;;;;;;5059298;28;19931;-70
2021/07/16 05:11:36;;;;;;;;;;;;;;;;;;5065664;28;19942;-70
2021/07/16 05:14:03;;;;;;;;;;;;;;;;;;5065346;28;20020;-71
2021/07/16 05:16:30;;;;;;;;;;;;;;;;;;5064788;28;19935;-71
2021/07/16 05:18:56;;;;;;;;;;;;;;;;;;5065886;28;19924;-70
2021/07/16 05:21:24;;;;;;;;;;;;;;;;;;5063882;28;19926;-70
2021/07/16 05:23:51;;;;;;;;;;;;;;;;;;5068379;28;19924;-71
2021/07/16 05:26:18;;;;;;;;;;;;;;;;;;5067290;28;20300;-71
2021/07/16 05:28:47;;;;;;;;;;;;;;;;;;5068603;28;20392;-71
2021/07/16 05:31:14;;;;;;;;;;;;;;;;;;5068147;28;19931;-70
2021/07/16 05:33:41;;;;;;;;;;;;;;;;;;5064847;28;19981;-70
2021/07/16 05:36:09;;;;;;;;;;;;;;;;;;5067076;28;19939;-70
2021/07/16 05:38:37;;;;;;;;;;;;;;;;;;5065398;28;19935;-69
2021/07/16 05:41:04;;;;;;;;;;;;;;;;;;5060144;28;19971;-71
2021/07/16 05:43:31;;;;;;;;;;;;;;;;;;5060143;28;19924;-69
2021/07/16 05:45:58;;;;;;;;;;;;;;;;;;5064618;28;21481;-70
2021/07/16 05:48:25;;;;;;;;;;;;;;;;;;5068944;28;19924;-71
2021/07/16 05:50:52;;;;;;;;;;;;;;;;;;5065206;28;20467;-72
2021/07/16 05:53:19;;;;;;;;;;;;;;;;;;5067917;28;20324;-70
2021/07/16 05:55:46;;;;;;;;;;;;;;;;;;5069758;28;19933;-70
2021/07/16 05:58:13;;;;;;;;;;;;;;;;;;5069732;28;19924;-71
2021/07/16 06:00:40;;;;;;;;;;;;;;;;;;5057163;28;19925;-70
2021/07/16 06:03:07;;;;;;;;;;;;;;;;;;5063632;28;19931;-71
2021/07/16 06:05:34;;;;;;;;;;;;;;;;;;5055653;28;19935;-71
2021/07/16 06:08:01;;;;;;;;;;;;;;;;;;5059700;28;19933;-71
2021/07/16 06:10:28;;;;;;;;;;;;;;;;;;5059546;28;19936;-70
2021/07/16 06:12:54;;;;;;;;;;;;;;;;;;5063922;28;19931;-70
2021/07/16 06:15:21;;;;;;;;;;;;;;;;;;5063985;28;19925;-70
2021/07/16 06:17:48;;;;;;;;;;;;;;;;;;5066293;28;19931;-70
2021/07/16 06:20:15;;;;;;;;;;;;;;;;;;5067154;28;19939;-70
2021/07/16 06:22:42;;;;;;;;;;;;;;;;;;5061384;28;19936;-70
2021/07/16 06:25:09;;;;;;;;;;;;;;;;;;5065134;28;19951;-69
2021/07/16 06:27:36;;;;;;;;;;;;;;;;;;5069045;28;19924;-71
2021/07/16 06:30:03;;;;;;;;;;;;;;;;;;5066792;28;20310;-71
2021/07/16 06:32:30;;;;;;;;;;;;;;;;;;5062060;28;20389;-71
2021/07/16 06:34:57;;;;;;;;;;;;;;;;;;5059133;28;20427;-70
2021/07/16 06:37:24;;;;;;;;;;;;;;;;;;5065408;28;20276;-70
2021/07/16 06:39:51;;;;;;;;;;;;;;;;;;5062216;28;20388;-70
2021/07/16 06:42:18;;;;;;;;;;;;;;;;;;5066370;28;19948;-70
2021/07/16 06:44:45;;;;;;;;;;;;;;;;;;5063309;28;21049;-71
2021/07/16 06:47:12;;;;;;;;;;;;;;;;;;5068226;28;19928;-71
2021/07/16 06:49:39;;;;;;;;;;;;;;;;;;5066868;28;20019;-71
2021/07/16 06:52:06;;;;;;;;;;;;;;;;;;5059058;28;20312;-71
2021/07/16 06:54:33;;;;;;;;;;;;;;;;;;5060269;28;19957;-71
2021/07/16 06:57:00;;;;;;;;;;;;;;;;;;5065303;28;20316;-70
2021/07/16 06:59:26;;;;;;;;;;;;;;;;;;5057940;28;20381;-71
2021/07/16 07:01:53;;;;;;;;;;;;;;;;;;5056997;28;19925;-71
2021/07/16 07:04:20;;;;;;;;;;;;;;;;;;5062668;28;20303;-69
2021/07/16 07:06:47;;;;;;;;;;;;;;;;;;5062351;28;20278;-69
2021/07/16 07:09:14;;;;;;;;;;;;;;;;;;5069376;28;20303;-68
2021/07/16 07:11:41;;;;;;;;;;;;;;;;;;5069707;28;19936;-69
2021/07/16 07:14:08;;;;;;;;;;;;;;;;;;5063048;28;19932;-67
2021/07/16 07:16:35;;;;;;;;;;;;;;;;;;5060311;28;19928;-67
2021/07/16 07:19:02;;;;;;;;;;;;;;;;;;5065064;28;19928;-67
2021/07/16 07:21:29;;;;;;;;;;;;;;;;;;5064840;28;19936;-68
2021/07/16 07:23:56;;;;;;;;;;;;;;;;;;5063890;28;19939;-69
2021/07/16 07:26:23;;;;;;;;;;;;;;;;;;5064039;28;20311;-68
2021/07/16 07:28:50;;;;;;;;;;;;;;;;;;5065086;28;20376;-69
2021/07/16 07:31:17;;;;;;;;;;;;;;;;;;5058989;28;20316;-68
2021/07/16 07:33:44;;;;;;;;;;;;;;;;;;5060742;28;20202;-68
2021/07/16 07:36:11;;;;;;;;;;;;;;;;;;5061632;28;19931;-67
2021/07/16 07:38:38;;;;;;;;;;;;;;;;;;5060101;28;19966;-68
2021/07/16 07:41:05;;;;;;;;;;;;;;;;;;5065472;28;19958;-67
2021/07/16 07:43:32;;;;;;;;;;;;;;;;;;5063025;28;20404;-69
2021/07/16 07:45:59;;;;;;;;;;;;;;;;;;5061193;28;20024;-69
2021/07/16 07:48:26;;;;;;;;;;;;;;;;;;5058952;28;19940;-68
2021/07/16 07:50:53;;;;;;;;;;;;;;;;;;5064897;28;19932;-68
2021/07/16 07:53:20;;;;;;;;;;;;;;;;;;5062568;28;19943;-68
2021/07/16 07:55:46;;;;;;;;;;;;;;;;;;5060653;28;19925;-68
2021/07/16 07:58:13;;;;;;;;;;;;;;;;;;5065411;28;19925;-67
2021/07/16 08:00:40;;;;;;;;;;;;;;;;;;5062813;28;19930;-68
2021/07/16 08:03:07;;;;;;;;;;;;;;;;;;5064487;28;19939;-69
2021/07/16 08:05:34;;;;;;;;;;;;;;;;;;5061018;28;19925;-66
2021/07/16 08:08:01;;;;;;;;;;;;;;;;;;5065030;28;19924;-68
2021/07/16 08:10:28;;;;;;;;;;;;;;;;;;5059190;28;20660;-69
2021/07/16 08:12:55;;;;;;;;;;;;;;;;;;5067774;28;20312;-68
2021/07/16 08:15:22;;;;;;;;;;;;;;;;;;5067530;28;19931;-68
2021/07/16 08:17:49;;;;;;;;;;;;;;;;;;5067702;28;19928;-68
2021/07/16 08:20:16;;;;;;;;;;;;;;;;;;5065256;28;20373;-68
2021/07/16 08:22:43;;;;;;;;;;;;;;;;;;5069256;28;20300;-69
2021/07/16 08:25:10;;;;;;;;;;;;;;;;;;5064772;28;19925;-71
2021/07/16 08:27:37;;;;;;;;;;;;;;;;;;5062091;28;20292;-71
2021/07/16 08:30:04;;;;;;;;;;;;;;;;;;5067454;28;19924;-70
2021/07/16 08:32:31;;;;;;;;;;;;;;;;;;5062026;28;19924;-70
2021/07/16 08:34:58;;;;;;;;;;;;;;;;;;5064402;28;19925;-69
2021/07/16 08:37:25;;;;;;;;;;;;;;;;;;5063388;28;19924;-72
2021/07/16 08:39:53;;;;;;;;;;;;;;;;;;5067775;28;19925;-72
2021/07/16 08:42:20;;;;;;;;;;;;;;;;;;5068735;28;20023;-71
2021/07/16 08:44:47;;;;;;;;;;;;;;;;;;5059883;28;19925;-70
2021/07/16 08:47:14;;;;;;;;;;;;;;;;;;5064539;28;19925;-69
2021/07/16 08:49:41;;;;;;;;;;;;;;;;;;5064356;28;19924;-69
2021/07/16 08:52:08;;;;;;;;;;;;;;;;;;5072174;28;19934;-69
2021/07/16 08:54:38;;;;;;;;;;;;;;;;;;5068368;28;19924;-68
2021/07/16 08:57:05;;;;;;;;;;;;;;;;;;5065831;28;19924;-68
2021/07/16 08:59:32;;;;;;;;;;;;;;;;;;5063653;28;19924;-68
2021/07/16 09:02:02;;;;;;;;;;;;;;;;;;5062332;28;19952;-68
2021/07/16 09:04:29;;;;;;;;;;;;;;;;;;5066976;28;19929;-69
2021/07/16 09:06:55;;;;;;;;;;;;;;;;;;5063082;28;19924;-68
2021/07/16 09:09:22;;;;;;;;;;;;;;;;;;5067647;28;19947;-68
2021/07/16 09:11:49;;;;;;;;;;;;;;;;;;5063889;28;20384;-68
2021/07/16 09:14:16;;;;;;;;;;;;;;;;;;5069856;28;19924;-69
2021/07/16 09:16:43;;;;;;;;;;;;;;;;;;5063126;28;19932;-69
2021/07/16 09:19:10;;;;;;;;;;;;;;;;;;5060055;28;19931;-69
2021/07/16 09:21:37;;;;;;;;;;;;;;;;;;5064045;28;19924;-69
2021/07/16 09:24:05;;;;;;;;;;;;;;;;;;5065620;28;19925;-69
2021/07/16 09:26:37;;;;;;;;;;;;;;;;;;5068364;28;19928;-68
2021/07/16 09:29:05;;;;;;;;;;;;;;;;;;5065047;28;19924;-68
2021/07/16 09:31:32;;;;;;;;;;;;;;;;;;5066056;28;20466;-68
2021/07/16 09:34:00;;;;;;;;;;;;;;;;;;5066700;28;19932;-68
2021/07/16 09:36:27;;;;;;;;;;;;;;;;;;5072308;22;20320;-69
2021/07/16 09:38:54;;;;;;;;;;;;;;;;;;5044682;28;19933;-68
2021/07/16 09:41:21;;;;;;;;;;;;;;;;;;5048442;28;19991;-68
2021/07/16 09:43:48;;;;;;;;;;;;;;;;;;5047135;28;20377;-69
2021/07/16 09:46:15;;;;;;;;;;;;;;;;;;5045727;28;19999;-68
2021/07/16 09:48:43;;;;;;;;;;;;;;;;;;5046332;28;19925;-68
2021/07/16 09:51:10;;;;;;;;;;;;;;;;;;5047375;28;20291;-69
2021/07/16 09:53:37;;;;;;;;;;;;;;;;;;5048095;28;20222;-68
2021/07/16 09:56:04;;;;;;;;;;;;;;;;;;5047793;28;19979;-69
2021/07/16 09:58:31;;;;;;;;;;;;;;;;;;5047917;28;19987;-68
2021/07/16 10:00:58;;;;;;;;;;;;;;;;;;5046322;28;19931;-68
2021/07/16 10:03:25;;;;;;;;;;;;;;;;;;5043835;28;19925;-69
2021/07/16 10:05:52;;;;;;;;;;;;;;;;;;5042156;28;19932;-69
2021/07/16 10:08:19;;;;;;;;;;;;;;;;;;5045590;28;19924;-69
2021/07/16 10:10:46;;;;;;;;;;;;;;;;;;5047440;28;19933;-70
2021/07/16 10:13:13;;;;;;;;;;;;;;;;;;5044725;28;19978;-68
2021/07/16 10:15:40;;;;;;;;;;;;;;;;;;5043936;28;19925;-68
2021/07/16 10:18:07;;;;;;;;;;;;;;;;;;5048747;28;19925;-68
2021/07/16 10:20:34;;;;;;;;;;;;;;;;;;5042889;28;19929;-68
2021/07/16 10:23:01;;;;;;;;;;;;;;;;;;5046620;28;19929;-68
2021/07/16 10:25:28;;;;;;;;;;;;;;;;;;5046275;28;20324;-68
2021/07/16 10:27:55;;;;;;;;;;;;;;;;;;5047394;28;20019;-68
2021/07/16 10:30:25;;;;;;;;;;;;;;;;;;5045985;28;20293;-68
2021/07/16 10:32:52;;;;;;;;;;;;;;;;;;5046999;28;20426;-68
2021/07/16 10:35:20;;;;;;;;;;;;;;;;;;5045944;28;20016;-68
2021/07/16 10:37:47;;;;;;;;;;;;;;;;;;5045284;28;19932;-68
2021/07/16 10:40:14;;;;;;;;;;;;;;;;;;5045448;28;19925;-69
2021/07/16 10:42:43;;;;;;;;;;;;;;;;;;5048819;28;20299;-69
2021/07/16 10:45:10;;;;;;;;;;;;;;;;;;5047411;28;19970;-68
2021/07/16 10:47:37;;;;;;;;;;;;;;;;;;5048494;28;19940;-68
2021/07/16 10:50:04;;;;;;;;;;;;;;;;;;5045988;28;20300;-69
2021/07/16 10:52:31;;;;;;;;;;;;;;;;;;5047184;28;19939;-69
2021/07/16 10:54:58;;;;;;;;;;;;;;;;;;5045285;28;19947;-68
2021/07/16 10:57:25;;;;;;;;;;;;;;;;;;5047360;28;20419;-69
2021/07/16 10:59:52;;;;;;;;;;;;;;;;;;5045106;28;19932;-69
2021/07/16 11:02:19;;;;;;;;;;;;;;;;;;5045452;28;19925;-69
2021/07/16 11:04:46;;;;;;;;;;;;;;;;;;5042972;28;20286;-69
2021/07/16 11:07:13;;;;;;;;;;;;;;;;;;5042962;28;20364;-69
2021/07/16 11:09:42;;;;;;;;;;;;;;;;;;5044725;28;19931;-69
2021/07/16 11:12:09;;;;;;;;;;;;;;;;;;5044727;28;19944;-67
2021/07/16 11:14:36;;;;;;;;;;;;;;;;;;5043936;28;19976;-72
2021/07/16 11:17:03;;;;;;;;;;;;;;;;;;5045832;28;19925;-71
2021/07/16 11:19:30;;;;;;;;;;;;;;;;;;5044964;28;20348;-71
2021/07/16 11:22:00;;;;;;;;;;;;;;;;;;5043362;28;19925;-70
2021/07/16 11:24:30;;;;;;;;;;;;;;;;;;5046243;28;19929;-69
2021/07/16 11:26:57;;;;;;;;;;;;;;;;;;5045776;28;19925;-69
2021/07/16 11:29:24;;;;;;;;;;;;;;;;;;5043697;28;19973;-69
2021/07/16 11:31:51;;;;;;;;;;;;;;;;;;5049051;28;20364;-70
2021/07/16 11:34:19;;;;;;;;;;;;;;;;;;5046810;28;19933;-70
2021/07/16 11:36:46;;;;;;;;;;;;;;;;;;5046729;28;19929;-70
2021/07/16 11:39:13;;;;;;;;;;;;;;;;;;5045802;28;19929;-67
2021/07/16 11:41:40;;;;;;;;;;;;;;;;;;5046064;28;19931;-68
2021/07/16 11:44:06;;;;;;;;;;;;;;;;;;5044947;28;19925;-67
2021/07/16 11:46:33;;;;;;;;;;;;;;;;;;5043280;28;19925;-68
2021/07/16 11:49:00;;;;;;;;;;;;;;;;;;5044603;28;20307;-69
2021/07/16 11:51:27;;;;;;;;;;;;;;;;;;5046552;28;19933;-68
2021/07/16 11:53:54;;;;;;;;;;;;;;;;;;5044266;28;19933;-68
2021/07/16 11:56:23;;;;;;;;;;;;;;;;;;5037901;28;20015;-68
2021/07/16 11:58:50;;;;;;;;;;;;;;;;;;5044931;28;19929;-69
2021/07/16 12:01:17;;;;;;;;;;;;;;;;;;5042018;28;19955;-68
2021/07/16 12:03:44;;;;;;;;;;;;;;;;;;5045021;28;19959;-69
2021/07/16 12:06:11;;;;;;;;;;;;;;;;;;5047874;28;19925;-68
2021/07/16 12:08:38;;;;;;;;;;;;;;;;;;5044924;28;19929;-67
2021/07/16 12:11:05;;;;;;;;;;;;;;;;;;5044007;28;19986;-68
2021/07/16 12:13:32;;;;;;;;;;;;;;;;;;5041905;28;19929;-69
2021/07/16 12:15:59;;;;;;;;;;;;;;;;;;5044315;28;20004;-69
2021/07/16 12:18:26;;;;;;;;;;;;;;;;;;5045086;28;19932;-68
2021/07/16 12:20:54;;;;;;;;;;;;;;;;;;5045442;28;19932;-68
2021/07/16 12:23:21;;;;;;;;;;;;;;;;;;5045168;28;19939;-69
2021/07/16 12:25:49;;;;;;;;;;;;;;;;;;5048063;28;19940;-69
2021/07/16 12:28:18;;;;;;;;;;;;;;;;;;5048085;28;19936;-68
2021/07/16 12:30:45;;;;;;;;;;;;;;;;;;5047346;28;19978;-68
2021/07/16 12:33:12;;;;;;;;;;;;;;;;;;5050229;28;19925;-68
2021/07/16 12:35:39;;;;;;;;;;;;;;;;;;5050876;28;19925;-68
2021/07/16 12:38:06;;;;;;;;;;;;;;;;;;5051667;28;19933;-68
2021/07/16 12:40:33;;;;;;;;;;;;;;;;;;5048557;28;19924;-68
2021/07/16 12:43:00;;;;;;;;;;;;;;;;;;5047667;28;19936;-69
2021/07/16 12:45:27;;;;;;;;;;;;;;;;;;5046883;28;19929;-70
2021/07/16 12:47:55;;;;;;;;;;;;;;;;;;5048816;28;19925;-70
2021/07/16 12:50:22;;;;;;;;;;;;;;;;;;5049788;28;19945;-69
2021/07/16 12:52:49;;;;;;;;;;;;;;;;;;5049751;28;20325;-70
2021/07/16 12:55:16;;;;;;;;;;;;;;;;;;5048835;28;19968;-70
2021/07/16 12:57:43;;;;;;;;;;;;;;;;;;5047922;28;20300;-70
2021/07/16 13:00:10;;;;;;;;;;;;;;;;;;5047302;28;20030;-70
2021/07/16 13:02:37;;;;;;;;;;;;;;;;;;5050535;28;19932;-70
2021/07/16 13:05:04;;;;;;;;;;;;;;;;;;5048740;28;19924;-69
2021/07/16 13:07:31;;;;;;;;;;;;;;;;;;5050316;28;19933;-69
2021/07/16 13:09:58;;;;;;;;;;;;;;;;;;5044532;28;20452;-69
2021/07/16 13:12:25;;;;;;;;;;;;;;;;;;5046082;28;19932;-69
2021/07/16 13:14:52;;;;;;;;;;;;;;;;;;5049365;28;19932;-69
2021/07/16 13:17:19;;;;;;;;;;;;;;;;;;5050033;28;19931;-71
2021/07/16 13:19:46;;;;;;;;;;;;;;;;;;5045378;28;20442;-70
2021/07/16 13:22:13;;;;;;;;;;;;;;;;;;5050459;28;19924;-70
2021/07/16 13:24:40;;;;;;;;;;;;;;;;;;5049679;28;19932;-68
2021/07/16 13:27:07;;;;;;;;;;;;;;;;;;5048062;28;19925;-69
2021/07/16 13:29:34;;;;;;;;;;;;;;;;;;5046526;28;19925;-69
2021/07/16 13:32:01;;;;;;;;;;;;;;;;;;5049438;28;19936;-69
2021/07/16 13:34:28;;;;;;;;;;;;;;;;;;5047967;28;19924;-70
2021/07/16 13:36:55;;;;;;;;;;;;;;;;;;5047182;28;19925;-67
2021/07/16 13:39:22;;;;;;;;;;;;;;;;;;5045281;28;19935;-68
2021/07/16 13:41:49;;;;;;;;;;;;;;;;;;5046648;28;19947;-69
2021/07/16 13:44:16;;;;;;;;;;;;;;;;;;5047294;28;19925;-68
2021/07/16 13:46:43;;;;;;;;;;;;;;;;;;5047553;28;19924;-69
2021/07/16 13:49:10;;;;;;;;;;;;;;;;;;5047539;28;19929;-69
2021/07/16 13:51:37;;;;;;;;;;;;;;;;;;5048737;28;20510;-69
2021/07/16 13:54:04;;;;;;;;;;;;;;;;;;5048329;28;19925;-69
2021/07/16 13:56:31;;;;;;;;;;;;;;;;;;5046152;28;19929;-70
2021/07/16 13:58:58;;;;;;;;;;;;;;;;;;5043676;28;19929;-70
2021/07/16 14:01:25;;;;;;;;;;;;;;;;;;5048907;28;19929;-68
2021/07/16 14:03:52;;;;;;;;;;;;;;;;;;5048991;28;20400;-70
2021/07/16 14:06:19;;;;;;;;;;;;;;;;;;5047599;28;19925;-68
2021/07/16 14:08:46;;;;;;;;;;;;;;;;;;5048543;28;19939;-68
2021/07/16 14:11:13;;;;;;;;;;;;;;;;;;5046765;28;20304;-69
2021/07/16 14:13:40;;;;;;;;;;;;;;;;;;5047239;28;19929;-69
2021/07/16 14:16:07;;;;;;;;;;;;;;;;;;5047766;28;19933;-69
2021/07/16 14:18:34;;;;;;;;;;;;;;;;;;5047348;28;19925;-69
2021/07/16 14:21:01;;;;;;;;;;;;;;;;;;5046756;28;20385;-69
2021/07/16 14:23:28;;;;;;;;;;;;;;;;;;5043297;28;19940;-69
2021/07/16 14:25:55;;;;;;;;;;;;;;;;;;5046838;28;19928;-69
2021/07/16 14:28:22;;;;;;;;;;;;;;;;;;5049656;28;19925;-69
2021/07/16 14:30:51;;;;;;;;;;;;;;;;;;5048742;28;19925;-70
2021/07/16 14:33:18;;;;;;;;;;;;;;;;;;5045481;28;19925;-69
2021/07/16 14:35:45;;;;;;;;;;;;;;;;;;5046817;28;19932;-70
2021/07/16 14:38:12;;;;;;;;;;;;;;;;;;5046761;28;19932;-69
2021/07/16 14:40:38;;;;;;;;;;;;;;;;;;5045517;28;20300;-69
2021/07/16 14:43:06;;;;;;;;;;;;;;;;;;5048916;28;20274;-70
2021/07/16 14:45:32;;;;;;;;;;;;;;;;;;5044865;28;20016;-69
2021/07/16 14:47:59;;;;;;;;;;;;;;;;;;5045552;28;20381;-69
2021/07/16 14:50:26;;;;;;;;;;;;;;;;;;5042444;28;19928;-69
2021/07/16 14:52:53;;;;;;;;;;;;;;;;;;5045959;28;19925;-69
2021/07/16 14:55:20;;;;;;;;;;;;;;;;;;5044043;28;20012;-69
2021/07/16 14:57:47;;;;;;;;;;;;;;;;;;5045865;28;19925;-70
2021/07/16 15:00:14;;;;;;;;;;;;;;;;;;5056251;28;19931;-69
2021/07/16 15:02:41;;;;;;;;;;;;;;;;;;5052057;28;20039;-69
2021/07/16 15:05:08;;;;;;;;;;;;;;;;;;5049989;28;19932;-69
2021/07/16 15:07:36;;;;;;;;;;;;;;;;;;5046457;28;20405;-70
2021/07/16 15:10:03;;;;;;;;;;;;;;;;;;5050430;28;19944;-68
2021/07/16 15:12:30;;;;;;;;;;;;;;;;;;5055151;28;19925;-68
2021/07/16 15:14:57;;;;;;;;;;;;;;;;;;5053655;28;19929;-69
2021/07/16 15:17:24;;;;;;;;;;;;;;;;;;5049912;28;19932;-69
2021/07/16 15:19:51;;;;;;;;;;;;;;;;;;5053206;28;20418;-68
2021/07/16 15:22:18;;;;;;;;;;;;;;;;;;5052791;28;19925;-69
2021/07/16 15:24:45;;;;;;;;;;;;;;;;;;5046942;28;20373;-69
2021/07/16 15:27:12;;;;;;;;;;;;;;;;;;5045701;28;20015;-69
2021/07/16 15:29:39;;;;;;;;;;;;;;;;;;5042705;28;19947;-69
2021/07/16 15:32:06;;;;;;;;;;;;;;;;;;5046140;28;19928;-69
2021/07/16 15:34:33;;;;;;;;;;;;;;;;;;5045063;28;19932;-69
2021/07/16 15:37:00;;;;;;;;;;;;;;;;;;5043400;28;19929;-70
2021/07/16 15:39:27;;;;;;;;;;;;;;;;;;5045922;28;20373;-70
2021/07/16 15:41:54;;;;;;;;;;;;;;;;;;5046239;28;19932;-69
2021/07/16 15:44:23;;;;;;;;;;;;;;;;;;5044031;28;20277;-70
2021/07/16 15:46:50;;;;;;;;;;;;;;;;;;5046041;28;19932;-70
2021/07/16 15:49:17;;;;;;;;;;;;;;;;;;5045093;28;20329;-70
2021/07/16 15:51:44;;;;;;;;;;;;;;;;;;5047350;28;19924;-69
2021/07/16 15:54:11;;;;;;;;;;;;;;;;;;5040255;28;19936;-70
2021/07/16 15:56:38;;;;;;;;;;;;;;;;;;5048031;28;20422;-70
2021/07/16 15:59:05;;;;;;;;;;;;;;;;;;5045382;28;20283;-70
2021/07/16 16:01:32;;;;;;;;;;;;;;;;;;5045445;28;19925;-69
2021/07/16 16:03:59;;;;;;;;;;;;;;;;;;5042924;28;20388;-69
2021/07/16 16:06:26;;;;;;;;;;;;;;;;;;5046293;28;20072;-69
2021/07/16 16:08:53;;;;;;;;;;;;;;;;;;5045929;28;19933;-69
2021/07/16 16:11:20;;;;;;;;;;;;;;;;;;5042802;28;20019;-70
2021/07/16 16:13:47;;;;;;;;;;;;;;;;;;5046176;28;20015;-69
2021/07/16 16:16:14;;;;;;;;;;;;;;;;;;5045102;28;19931;-70
2021/07/16 16:18:41;;;;;;;;;;;;;;;;;;5043632;28;19944;-69
2021/07/16 16:21:08;;;;;;;;;;;;;;;;;;5043915;28;20027;-70
2021/07/16 16:23:37;;;;;;;;;;;;;;;;;;5043147;28;19933;-70
2021/07/16 16:26:04;;;;;;;;;;;;;;;;;;5044234;28;19929;-70
2021/07/16 16:28:31;;;;;;;;;;;;;;;;;;5040955;28;19943;-70
2021/07/16 16:30:58;;;;;;;;;;;;;;;;;;5042859;28;19924;-70
2021/07/16 16:33:25;;;;;;;;;;;;;;;;;;5045238;28;19932;-70
2021/07/16 16:35:52;;;;;;;;;;;;;;;;;;5039848;28;20175;-70
2021/07/16 16:38:19;;;;;;;;;;;;;;;;;;5043739;28;19929;-69
2021/07/16 16:40:46;;;;;;;;;;;;;;;;;;5044929;28;20039;-71
2021/07/16 16:43:13;;;;;;;;;;;;;;;;;;5045573;28;20035;-70